sensor_id;sensor_type;location;lat;lon;timestamp;temperature;humidity
6379;DHT22;3222;48.858;10.128;2022-08-19T00:01:42;21.20;99.90
6379;DHT22;3222;48.858;10.128;2022-08-19T00:04:10;21.20;99.90
6379;DHT22;3222;48.858;10.128;2022-08-19T00:06:40;21.20;99.90
6379;DHT22;3222;48.858;10.128;2022-08-19T00:09:09;21.20;99.90
6379;DHT22;3222;48.858;10.128;2022-08-19T00:11:35;21.20;99.90
6379;DHT22;3222;48.858;10.128;2022-08-19T00:14:11;21.20;99.90
6379;DHT22;3222;48.858;10.128;2022-08-19T00:16:38;21.10;99.90
6379;DHT22;3222;48.858;10.128;2022-08-19T00:19:04;21.10;99.90
6379;DHT22;3222;48.858;10.128;2022-08-19T00:21:30;21.10;99.90
6379;DHT22;3222;48.858;10.128;2022-08-19T00:23:57;21.10;99.90
6379;DHT22;3222;48.858;10.128;2022-08-19T00:26:27;21.10;99.90
6379;DHT22;3222;48.858;10.128;2022-08-19T00:28:53;21.00;99.90
6379;DHT22;3222;48.858;10.128;2022-08-19T00:31:19;21.00;99.90
6379;DHT22;3222;48.858;10.128;2022-08-19T00:33:46;21.00;99.90
6379;DHT22;3222;48.858;10.128;2022-08-19T00:36:13;21.00;99.90
6379;DHT22;3222;48.858;10.128;2022-08-19T00:38:39;21.00;99.90
6379;DHT22;3222;48.858;10.128;2022-08-19T00:41:09;21.00;99.90
6379;DHT22;3222;48.858;10.128;2022-08-19T00:43:36;21.00;99.90
6379;DHT22;3222;48.858;10.128;2022-08-19T00:46:04;21.00;99.90
6379;DHT22;3222;48.858;10.128;2022-08-19T00:48:30;20.90;99.90
6379;DHT22;3222;48.858;10.128;2022-08-19T00:50:57;20.90;99.90
6379;DHT22;3222;48.858;10.128;2022-08-19T00:53:27;20.90;99.90
6379;DHT22;3222;48.858;10.128;2022-08-19T00:55:55;20.90;99.90
6379;DHT22;3222;48.858;10.128;2022-08-19T00:58:26;20.90;99.90
6379;DHT22;3222;48.858;10.128;2022-08-19T01:00:54;20.90;99.90
6379;DHT22;3222;48.858;10.128;2022-08-19T01:03:21;20.90;99.90
6379;DHT22;3222;48.858;10.128;2022-08-19T01:05:48;20.80;99.90
6379;DHT22;3222;48.858;10.128;2022-08-19T01:08:16;20.90;99.90
6379;DHT22;3222;48.858;10.128;2022-08-19T01:10:46;20.90;99.90
6379;DHT22;3222;48.858;10.128;2022-08-19T01:13:14;20.80;99.90
6379;DHT22;3222;48.858;10.128;2022-08-19T01:15:44;20.80;99.90
6379;DHT22;3222;48.858;10.128;2022-08-19T01:18:13;20.80;99.90
6379;DHT22;3222;48.858;10.128;2022-08-19T01:20:40;20.80;99.90
6379;DHT22;3222;48.858;10.128;2022-08-19T01:23:06;20.80;99.90
6379;DHT22;3222;48.858;10.128;2022-08-19T01:25:43;20.80;99.90
6379;DHT22;3222;48.858;10.128;2022-08-19T01:28:19;20.80;99.90
6379;DHT22;3222;48.858;10.128;2022-08-19T01:30:46;20.80;99.90
6379;DHT22;3222;48.858;10.128;2022-08-19T01:33:12;20.80;99.90
6379;DHT22;3222;48.858;10.128;2022-08-19T01:35:38;20.80;99.90
6379;DHT22;3222;48.858;10.128;2022-08-19T01:38:07;20.70;99.90
6379;DHT22;3222;48.858;10.128;2022-08-19T01:40:35;20.70;99.90
6379;DHT22;3222;48.858;10.128;2022-08-19T01:43:02;20.80;99.90
6379;DHT22;3222;48.858;10.128;2022-08-19T01:45:31;20.80;99.90
6379;DHT22;3222;48.858;10.128;2022-08-19T01:47:57;20.70;99.90
6379;DHT22;3222;48.858;10.128;2022-08-19T01:50:24;20.70;99.90
6379;DHT22;3222;48.858;10.128;2022-08-19T01:52:50;20.70;99.90
6379;DHT22;3222;48.858;10.128;2022-08-19T01:55:19;20.70;99.90
6379;DHT22;3222;48.858;10.128;2022-08-19T01:57:49;20.70;99.90
6379;DHT22;3222;48.858;10.128;2022-08-19T02:00:18;20.70;99.90
6379;DHT22;3222;48.858;10.128;2022-08-19T02:02:43;20.70;99.90
6379;DHT22;3222;48.858;10.128;2022-08-19T02:05:10;20.70;99.90
6379;DHT22;3222;48.858;10.128;2022-08-19T02:07:37;20.70;99.90
6379;DHT22;3222;48.858;10.128;2022-08-19T02:10:05;20.70;99.90
6379;DHT22;3222;48.858;10.128;2022-08-19T02:12:32;20.70;99.90
6379;DHT22;3222;48.858;10.128;2022-08-19T02:14:58;20.70;99.90
6379;DHT22;3222;48.858;10.128;2022-08-19T02:17:24;20.70;99.90
6379;DHT22;3222;48.858;10.128;2022-08-19T02:19:50;20.70;99.90
6379;DHT22;3222;48.858;10.128;2022-08-19T02:22:16;20.70;99.90
6379;DHT22;3222;48.858;10.128;2022-08-19T02:24:41;20.70;99.90
6379;DHT22;3222;48.858;10.128;2022-08-19T02:27:07;20.70;99.90
6379;DHT22;3222;48.858;10.128;2022-08-19T02:29:33;20.60;99.90
6379;DHT22;3222;48.858;10.128;2022-08-19T02:31:58;20.60;99.90
6379;DHT22;3222;48.858;10.128;2022-08-19T02:34:24;20.60;99.90
6379;DHT22;3222;48.858;10.128;2022-08-19T02:36:51;20.60;99.90
6379;DHT22;3222;48.858;10.128;2022-08-19T02:39:17;20.60;99.90
6379;DHT22;3222;48.858;10.128;2022-08-19T02:41:43;20.60;99.90
6379;DHT22;3222;48.858;10.128;2022-08-19T02:44:09;20.60;99.90
6379;DHT22;3222;48.858;10.128;2022-08-19T02:46:35;20.60;99.90
6379;DHT22;3222;48.858;10.128;2022-08-19T02:49:06;20.70;99.90
6379;DHT22;3222;48.858;10.128;2022-08-19T02:51:36;20.70;99.90
6379;DHT22;3222;48.858;10.128;2022-08-19T02:54:03;20.70;99.90
6379;DHT22;3222;48.858;10.128;2022-08-19T02:56:29;20.60;99.90
6379;DHT22;3222;48.858;10.128;2022-08-19T02:58:57;20.60;99.90
6379;DHT22;3222;48.858;10.128;2022-08-19T03:01:31;20.60;99.90
6379;DHT22;3222;48.858;10.128;2022-08-19T03:03:59;20.50;99.90
6379;DHT22;3222;48.858;10.128;2022-08-19T03:06:26;20.50;99.90
6379;DHT22;3222;48.858;10.128;2022-08-19T03:08:53;20.50;99.90
6379;DHT22;3222;48.858;10.128;2022-08-19T03:11:30;20.50;99.90
6379;DHT22;3222;48.858;10.128;2022-08-19T03:13:57;20.50;99.90
6379;DHT22;3222;48.858;10.128;2022-08-19T03:16:26;20.50;99.90
6379;DHT22;3222;48.858;10.128;2022-08-19T03:18:52;20.50;99.90
6379;DHT22;3222;48.858;10.128;2022-08-19T03:21:21;20.50;99.90
6379;DHT22;3222;48.858;10.128;2022-08-19T03:23:47;20.50;99.90
6379;DHT22;3222;48.858;10.128;2022-08-19T03:26:13;20.60;99.90
6379;DHT22;3222;48.858;10.128;2022-08-19T03:28:43;20.60;99.90
6379;DHT22;3222;48.858;10.128;2022-08-19T03:31:13;20.60;99.90
6379;DHT22;3222;48.858;10.128;2022-08-19T03:33:40;20.70;99.90
6379;DHT22;3222;48.858;10.128;2022-08-19T03:36:12;20.60;99.90
6379;DHT22;3222;48.858;10.128;2022-08-19T03:38:46;20.70;99.90
6379;DHT22;3222;48.858;10.128;2022-08-19T03:41:17;20.70;99.90
6379;DHT22;3222;48.858;10.128;2022-08-19T03:43:44;20.70;99.90
6379;DHT22;3222;48.858;10.128;2022-08-19T03:46:19;20.60;99.90
6379;DHT22;3222;48.858;10.128;2022-08-19T03:48:50;20.60;99.90
6379;DHT22;3222;48.858;10.128;2022-08-19T03:51:37;20.60;99.90
6379;DHT22;3222;48.858;10.128;2022-08-19T03:54:08;20.60;99.90
6379;DHT22;3222;48.858;10.128;2022-08-19T03:56:35;20.50;99.90
6379;DHT22;3222;48.858;10.128;2022-08-19T03:59:03;20.50;99.90
6379;DHT22;3222;48.858;10.128;2022-08-19T04:01:30;20.40;99.90
6379;DHT22;3222;48.858;10.128;2022-08-19T04:03:57;20.40;99.90
6379;DHT22;3222;48.858;10.128;2022-08-19T04:06:26;20.30;99.90
6379;DHT22;3222;48.858;10.128;2022-08-19T04:08:53;20.30;99.90
6379;DHT22;3222;48.858;10.128;2022-08-19T04:11:23;20.30;99.90
6379;DHT22;3222;48.858;10.128;2022-08-19T04:13:50;20.30;99.90
6379;DHT22;3222;48.858;10.128;2022-08-19T04:16:17;20.40;99.90
6379;DHT22;3222;48.858;10.128;2022-08-19T04:18:43;20.40;99.90
6379;DHT22;3222;48.858;10.128;2022-08-19T04:21:23;20.40;99.90
6379;DHT22;3222;48.858;10.128;2022-08-19T04:23:49;20.40;99.90
6379;DHT22;3222;48.858;10.128;2022-08-19T04:26:21;20.50;99.90
6379;DHT22;3222;48.858;10.128;2022-08-19T04:28:48;20.50;99.90
6379;DHT22;3222;48.858;10.128;2022-08-19T04:31:17;20.50;99.90
6379;DHT22;3222;48.858;10.128;2022-08-19T04:33:43;20.40;99.90
6379;DHT22;3222;48.858;10.128;2022-08-19T04:36:16;20.40;99.90
6379;DHT22;3222;48.858;10.128;2022-08-19T04:38:42;20.40;99.90
6379;DHT22;3222;48.858;10.128;2022-08-19T04:41:08;20.40;99.90
6379;DHT22;3222;48.858;10.128;2022-08-19T04:43:53;20.40;99.90
6379;DHT22;3222;48.858;10.128;2022-08-19T04:46:19;20.40;99.90
6379;DHT22;3222;48.858;10.128;2022-08-19T04:48:45;20.40;99.90
6379;DHT22;3222;48.858;10.128;2022-08-19T04:51:12;20.30;99.90
6379;DHT22;3222;48.858;10.128;2022-08-19T04:53:40;20.30;99.90
6379;DHT22;3222;48.858;10.128;2022-08-19T04:56:11;20.30;99.90
6379;DHT22;3222;48.858;10.128;2022-08-19T04:58:40;20.40;99.90
6379;DHT22;3222;48.858;10.128;2022-08-19T05:01:09;20.40;99.90
6379;DHT22;3222;48.858;10.128;2022-08-19T05:03:36;20.40;99.90
6379;DHT22;3222;48.858;10.128;2022-08-19T05:06:09;20.40;99.90
6379;DHT22;3222;48.858;10.128;2022-08-19T05:08:37;20.40;99.90
6379;DHT22;3222;48.858;10.128;2022-08-19T05:11:15;20.30;99.90
6379;DHT22;3222;48.858;10.128;2022-08-19T05:13:42;20.20;99.90
6379;DHT22;3222;48.858;10.128;2022-08-19T05:16:09;20.20;99.90
6379;DHT22;3222;48.858;10.128;2022-08-19T05:18:35;20.20;99.90
6379;DHT22;3222;48.858;10.128;2022-08-19T05:21:20;20.20;99.90
6379;DHT22;3222;48.858;10.128;2022-08-19T05:24:06;20.20;99.90
6379;DHT22;3222;48.858;10.128;2022-08-19T05:26:39;20.20;99.90
6379;DHT22;3222;48.858;10.128;2022-08-19T05:29:05;20.20;99.90
6379;DHT22;3222;48.858;10.128;2022-08-19T05:31:31;20.20;99.90
6379;DHT22;3222;48.858;10.128;2022-08-19T05:33:57;20.20;99.90
6379;DHT22;3222;48.858;10.128;2022-08-19T05:36:25;20.20;99.90
6379;DHT22;3222;48.858;10.128;2022-08-19T05:38:51;20.20;99.90
6379;DHT22;3222;48.858;10.128;2022-08-19T05:41:19;20.10;99.90
6379;DHT22;3222;48.858;10.128;2022-08-19T05:43:45;20.10;99.90
6379;DHT22;3222;48.858;10.128;2022-08-19T05:46:17;20.10;99.90
6379;DHT22;3222;48.858;10.128;2022-08-19T05:48:44;20.10;99.90
6379;DHT22;3222;48.858;10.128;2022-08-19T05:51:10;20.10;99.90
6379;DHT22;3222;48.858;10.128;2022-08-19T05:53:36;20.10;99.90
6379;DHT22;3222;48.858;10.128;2022-08-19T05:56:10;20.10;99.90
6379;DHT22;3222;48.858;10.128;2022-08-19T05:58:36;20.10;99.90
6379;DHT22;3222;48.858;10.128;2022-08-19T06:01:04;20.20;99.90
6379;DHT22;3222;48.858;10.128;2022-08-19T06:03:35;20.30;99.90
6379;DHT22;3222;48.858;10.128;2022-08-19T06:06:01;20.20;99.90
6379;DHT22;3222;48.858;10.128;2022-08-19T06:08:28;20.20;99.90
6379;DHT22;3222;48.858;10.128;2022-08-19T06:10:54;20.30;99.90
6379;DHT22;3222;48.858;10.128;2022-08-19T06:13:20;20.30;99.90
6379;DHT22;3222;48.858;10.128;2022-08-19T06:15:46;20.30;99.90
6379;DHT22;3222;48.858;10.128;2022-08-19T06:18:13;20.20;99.90
6379;DHT22;3222;48.858;10.128;2022-08-19T06:20:40;20.20;99.90
6379;DHT22;3222;48.858;10.128;2022-08-19T06:23:06;20.10;99.90
6379;DHT22;3222;48.858;10.128;2022-08-19T06:25:32;20.10;99.90
6379;DHT22;3222;48.858;10.128;2022-08-19T06:27:57;20.20;99.90
6379;DHT22;3222;48.858;10.128;2022-08-19T06:30:23;20.20;99.90
6379;DHT22;3222;48.858;10.128;2022-08-19T06:32:49;20.10;99.90
6379;DHT22;3222;48.858;10.128;2022-08-19T06:35:15;20.10;99.90
6379;DHT22;3222;48.858;10.128;2022-08-19T06:37:41;20.10;99.90
6379;DHT22;3222;48.858;10.128;2022-08-19T06:40:08;20.10;99.90
6379;DHT22;3222;48.858;10.128;2022-08-19T06:42:35;20.20;99.90
6379;DHT22;3222;48.858;10.128;2022-08-19T06:45:05;20.20;99.90
6379;DHT22;3222;48.858;10.128;2022-08-19T06:47:31;20.10;99.90
6379;DHT22;3222;48.858;10.128;2022-08-19T06:50:01;20.10;99.90
6379;DHT22;3222;48.858;10.128;2022-08-19T06:52:29;20.10;99.90
6379;DHT22;3222;48.858;10.128;2022-08-19T06:54:55;20.10;99.90
6379;DHT22;3222;48.858;10.128;2022-08-19T06:57:23;20.10;99.90
6379;DHT22;3222;48.858;10.128;2022-08-19T06:59:50;20.10;99.90
6379;DHT22;3222;48.858;10.128;2022-08-19T07:02:16;20.10;99.90
6379;DHT22;3222;48.858;10.128;2022-08-19T07:04:41;20.00;99.90
6379;DHT22;3222;48.858;10.128;2022-08-19T07:07:10;20.00;99.90
6379;DHT22;3222;48.858;10.128;2022-08-19T07:09:40;20.00;99.90
6379;DHT22;3222;48.858;10.128;2022-08-19T07:12:07;20.10;99.90
6379;DHT22;3222;48.858;10.128;2022-08-19T07:14:34;20.10;99.90
6379;DHT22;3222;48.858;10.128;2022-08-19T07:17:05;20.20;99.90
6379;DHT22;3222;48.858;10.128;2022-08-19T07:19:31;20.20;99.90
6379;DHT22;3222;48.858;10.128;2022-08-19T07:21:58;20.10;99.90
6379;DHT22;3222;48.858;10.128;2022-08-19T07:24:27;20.10;99.90
6379;DHT22;3222;48.858;10.128;2022-08-19T07:26:55;20.10;99.90
6379;DHT22;3222;48.858;10.128;2022-08-19T07:29:23;20.10;99.90
6379;DHT22;3222;48.858;10.128;2022-08-19T07:31:53;20.20;99.90
6379;DHT22;3222;48.858;10.128;2022-08-19T07:34:22;20.20;99.90
6379;DHT22;3222;48.858;10.128;2022-08-19T07:36:49;20.20;99.90
6379;DHT22;3222;48.858;10.128;2022-08-19T07:39:21;20.20;99.90
6379;DHT22;3222;48.858;10.128;2022-08-19T07:41:48;20.20;99.90
6379;DHT22;3222;48.858;10.128;2022-08-19T07:44:15;20.10;99.90
6379;DHT22;3222;48.858;10.128;2022-08-19T07:46:45;20.10;99.90
6379;DHT22;3222;48.858;10.128;2022-08-19T07:49:11;20.10;99.90
6379;DHT22;3222;48.858;10.128;2022-08-19T07:51:43;20.10;99.90
6379;DHT22;3222;48.858;10.128;2022-08-19T07:54:09;20.10;99.90
6379;DHT22;3222;48.858;10.128;2022-08-19T07:56:35;20.10;99.90
6379;DHT22;3222;48.858;10.128;2022-08-19T07:59:00;20.20;99.90
6379;DHT22;3222;48.858;10.128;2022-08-19T08:01:27;20.10;99.90
6379;DHT22;3222;48.858;10.128;2022-08-19T08:03:55;20.10;99.90
6379;DHT22;3222;48.858;10.128;2022-08-19T08:06:40;20.10;99.90
6379;DHT22;3222;48.858;10.128;2022-08-19T08:09:32;20.00;99.90
6379;DHT22;3222;48.858;10.128;2022-08-19T08:12:29;20.00;99.90
6379;DHT22;3222;48.858;10.128;2022-08-19T08:14:58;20.00;99.90
6379;DHT22;3222;48.858;10.128;2022-08-19T08:17:27;20.10;99.90
6379;DHT22;3222;48.858;10.128;2022-08-19T08:19:53;20.20;99.90
6379;DHT22;3222;48.858;10.128;2022-08-19T08:22:21;20.20;99.90
6379;DHT22;3222;48.858;10.128;2022-08-19T08:25:15;20.20;99.90
6379;DHT22;3222;48.858;10.128;2022-08-19T08:27:43;20.20;99.90
6379;DHT22;3222;48.858;10.128;2022-08-19T08:30:16;20.30;99.90
6379;DHT22;3222;48.858;10.128;2022-08-19T08:32:42;20.20;99.90
6379;DHT22;3222;48.858;10.128;2022-08-19T08:35:11;20.20;99.90
6379;DHT22;3222;48.858;10.128;2022-08-19T08:37:38;20.20;99.90
6379;DHT22;3222;48.858;10.128;2022-08-19T08:43:40;20.30;99.90
6379;DHT22;3222;48.858;10.128;2022-08-19T08:45:59;20.30;99.90
6379;DHT22;3222;48.858;10.128;2022-08-19T08:51:36;20.30;99.90
6379;DHT22;3222;48.858;10.128;2022-08-19T08:54:05;20.40;99.90
6379;DHT22;3222;48.858;10.128;2022-08-19T08:56:32;20.30;99.90
6379;DHT22;3222;48.858;10.128;2022-08-19T08:59:23;20.30;99.90
6379;DHT22;3222;48.858;10.128;2022-08-19T09:01:50;20.30;99.90
6379;DHT22;3222;48.858;10.128;2022-08-19T09:04:16;20.20;99.90
6379;DHT22;3222;48.858;10.128;2022-08-19T09:06:51;20.30;99.90
6379;DHT22;3222;48.858;10.128;2022-08-19T09:09:30;20.30;99.90
6379;DHT22;3222;48.858;10.128;2022-08-19T09:12:20;20.30;99.90
6379;DHT22;3222;48.858;10.128;2022-08-19T09:14:53;20.30;99.90
6379;DHT22;3222;48.858;10.128;2022-08-19T09:17:27;20.40;99.90
6379;DHT22;3222;48.858;10.128;2022-08-19T09:20:19;20.40;99.90
6379;DHT22;3222;48.858;10.128;2022-08-19T09:22:45;20.40;99.90
6379;DHT22;3222;48.858;10.128;2022-08-19T09:25:15;20.40;99.90
6379;DHT22;3222;48.858;10.128;2022-08-19T09:27:42;20.40;99.90
6379;DHT22;3222;48.858;10.128;2022-08-19T09:30:22;20.30;99.90
6379;DHT22;3222;48.858;10.128;2022-08-19T09:32:49;20.40;99.90
6379;DHT22;3222;48.858;10.128;2022-08-19T09:35:15;20.30;99.90
6379;DHT22;3222;48.858;10.128;2022-08-19T09:37:42;20.40;99.90
6379;DHT22;3222;48.858;10.128;2022-08-19T09:40:08;20.40;99.90
6379;DHT22;3222;48.858;10.128;2022-08-19T09:42:35;20.40;99.90
6379;DHT22;3222;48.858;10.128;2022-08-19T09:45:01;20.50;99.90
6379;DHT22;3222;48.858;10.128;2022-08-19T09:47:28;20.50;99.90
6379;DHT22;3222;48.858;10.128;2022-08-19T09:49:54;20.40;99.90
6379;DHT22;3222;48.858;10.128;2022-08-19T09:52:20;20.50;99.90
6379;DHT22;3222;48.858;10.128;2022-08-19T09:54:46;20.40;99.90
6379;DHT22;3222;48.858;10.128;2022-08-19T09:57:11;20.50;99.90
6379;DHT22;3222;48.858;10.128;2022-08-19T09:59:38;20.50;99.90
6379;DHT22;3222;48.858;10.128;2022-08-19T10:02:04;20.50;99.90
6379;DHT22;3222;48.858;10.128;2022-08-19T10:04:30;20.50;99.90
6379;DHT22;3222;48.858;10.128;2022-08-19T10:07:15;20.40;99.90
6379;DHT22;3222;48.858;10.128;2022-08-19T10:09:41;20.40;99.90
6379;DHT22;3222;48.858;10.128;2022-08-19T10:12:07;20.40;99.90
6379;DHT22;3222;48.858;10.128;2022-08-19T10:14:34;20.40;99.90
6379;DHT22;3222;48.858;10.128;2022-08-19T10:17:01;20.30;99.90
6379;DHT22;3222;48.858;10.128;2022-08-19T10:19:28;20.40;99.90
6379;DHT22;3222;48.858;10.128;2022-08-19T10:21:57;20.30;99.90
6379;DHT22;3222;48.858;10.128;2022-08-19T10:24:23;20.30;99.90
6379;DHT22;3222;48.858;10.128;2022-08-19T10:26:51;20.20;99.90
6379;DHT22;3222;48.858;10.128;2022-08-19T10:29:17;20.20;99.90
6379;DHT22;3222;48.858;10.128;2022-08-19T10:31:42;20.20;99.90
6379;DHT22;3222;48.858;10.128;2022-08-19T10:34:08;20.20;99.90
6379;DHT22;3222;48.858;10.128;2022-08-19T10:36:36;20.10;99.90
6379;DHT22;3222;48.858;10.128;2022-08-19T10:39:07;20.20;99.90
6379;DHT22;3222;48.858;10.128;2022-08-19T10:41:36;20.10;99.90
6379;DHT22;3222;48.858;10.128;2022-08-19T10:44:07;20.10;99.90
6379;DHT22;3222;48.858;10.128;2022-08-19T10:46:36;20.20;99.90
6379;DHT22;3222;48.858;10.128;2022-08-19T10:49:04;20.30;99.90
6379;DHT22;3222;48.858;10.128;2022-08-19T10:51:30;20.20;99.90
6379;DHT22;3222;48.858;10.128;2022-08-19T10:54:15;20.30;99.90
6379;DHT22;3222;48.858;10.128;2022-08-19T10:56:40;20.30;99.90
6379;DHT22;3222;48.858;10.128;2022-08-19T10:59:26;20.30;99.90
6379;DHT22;3222;48.858;10.128;2022-08-19T11:02:00;20.30;99.90
6379;DHT22;3222;48.858;10.128;2022-08-19T11:04:27;20.30;99.90
6379;DHT22;3222;48.858;10.128;2022-08-19T11:06:53;20.30;99.90
6379;DHT22;3222;48.858;10.128;2022-08-19T11:09:21;20.40;99.90
6379;DHT22;3222;48.858;10.128;2022-08-19T11:11:49;20.30;99.90
6379;DHT22;3222;48.858;10.128;2022-08-19T11:14:17;20.30;99.90
6379;DHT22;3222;48.858;10.128;2022-08-19T11:16:47;20.40;99.90
6379;DHT22;3222;48.858;10.128;2022-08-19T11:19:14;20.30;99.90
6379;DHT22;3222;48.858;10.128;2022-08-19T11:21:44;20.30;99.90
6379;DHT22;3222;48.858;10.128;2022-08-19T11:24:19;20.40;99.90
6379;DHT22;3222;48.858;10.128;2022-08-19T11:26:47;20.30;99.90
6379;DHT22;3222;48.858;10.128;2022-08-19T11:29:15;20.20;99.90
6379;DHT22;3222;48.858;10.128;2022-08-19T11:31:44;20.10;99.90
6379;DHT22;3222;48.858;10.128;2022-08-19T11:34:14;20.20;99.90
6379;DHT22;3222;48.858;10.128;2022-08-19T11:36:42;20.20;99.90
6379;DHT22;3222;48.858;10.128;2022-08-19T11:39:10;20.30;99.90
6379;DHT22;3222;48.858;10.128;2022-08-19T11:41:36;20.20;99.90
6379;DHT22;3222;48.858;10.128;2022-08-19T11:44:03;20.20;99.90
6379;DHT22;3222;48.858;10.128;2022-08-19T11:46:30;20.30;99.90
6379;DHT22;3222;48.858;10.128;2022-08-19T11:48:57;20.30;99.90
6379;DHT22;3222;48.858;10.128;2022-08-19T11:51:25;20.30;99.90
6379;DHT22;3222;48.858;10.128;2022-08-19T11:53:52;20.30;99.90
6379;DHT22;3222;48.858;10.128;2022-08-19T11:56:19;20.30;99.90
6379;DHT22;3222;48.858;10.128;2022-08-19T11:58:46;20.30;99.90
6379;DHT22;3222;48.858;10.128;2022-08-19T12:01:13;20.30;99.90
6379;DHT22;3222;48.858;10.128;2022-08-19T12:03:42;20.20;99.90
6379;DHT22;3222;48.858;10.128;2022-08-19T12:06:11;20.20;99.90
6379;DHT22;3222;48.858;10.128;2022-08-19T12:08:41;20.20;99.90
6379;DHT22;3222;48.858;10.128;2022-08-19T12:11:09;20.20;99.90
6379;DHT22;3222;48.858;10.128;2022-08-19T12:13:35;20.10;99.90
6379;DHT22;3222;48.858;10.128;2022-08-19T12:16:08;20.20;99.90
6379;DHT22;3222;48.858;10.128;2022-08-19T12:18:36;20.10;99.90
6379;DHT22;3222;48.858;10.128;2022-08-19T12:21:01;20.00;99.90
6379;DHT22;3222;48.858;10.128;2022-08-19T12:23:28;20.00;99.90
6379;DHT22;3222;48.858;10.128;2022-08-19T12:25:54;20.00;99.90
6379;DHT22;3222;48.858;10.128;2022-08-19T12:28:24;20.10;99.90
6379;DHT22;3222;48.858;10.128;2022-08-19T12:30:50;20.20;99.90
6379;DHT22;3222;48.858;10.128;2022-08-19T12:33:17;20.10;99.90
6379;DHT22;3222;48.858;10.128;2022-08-19T12:35:44;20.10;99.90
6379;DHT22;3222;48.858;10.128;2022-08-19T12:38:12;20.20;99.90
6379;DHT22;3222;48.858;10.128;2022-08-19T12:40:38;20.20;99.90
6379;DHT22;3222;48.858;10.128;2022-08-19T12:43:06;20.20;99.90
6379;DHT22;3222;48.858;10.128;2022-08-19T12:45:32;20.20;99.90
6379;DHT22;3222;48.858;10.128;2022-08-19T12:47:58;20.10;99.90
6379;DHT22;3222;48.858;10.128;2022-08-19T12:50:24;20.10;99.90
6379;DHT22;3222;48.858;10.128;2022-08-19T12:52:49;20.20;99.90
6379;DHT22;3222;48.858;10.128;2022-08-19T12:55:15;20.20;99.90
6379;DHT22;3222;48.858;10.128;2022-08-19T12:57:42;20.20;99.90
6379;DHT22;3222;48.858;10.128;2022-08-19T13:00:14;20.20;99.90
6379;DHT22;3222;48.858;10.128;2022-08-19T13:02:43;20.20;99.90
6379;DHT22;3222;48.858;10.128;2022-08-19T13:05:12;20.20;99.90
6379;DHT22;3222;48.858;10.128;2022-08-19T13:07:39;20.20;99.90
6379;DHT22;3222;48.858;10.128;2022-08-19T13:10:06;20.20;99.90
6379;DHT22;3222;48.858;10.128;2022-08-19T13:12:33;20.20;99.90
6379;DHT22;3222;48.858;10.128;2022-08-19T13:14:58;20.20;99.90
6379;DHT22;3222;48.858;10.128;2022-08-19T13:17:24;20.10;99.90
6379;DHT22;3222;48.858;10.128;2022-08-19T13:19:50;20.20;99.90
6379;DHT22;3222;48.858;10.128;2022-08-19T13:22:16;20.10;99.90
6379;DHT22;3222;48.858;10.128;2022-08-19T13:24:42;20.20;99.90
6379;DHT22;3222;48.858;10.128;2022-08-19T13:27:08;20.10;99.90
6379;DHT22;3222;48.858;10.128;2022-08-19T13:29:33;20.20;99.90
6379;DHT22;3222;48.858;10.128;2022-08-19T13:32:18;20.20;99.90
6379;DHT22;3222;48.858;10.128;2022-08-19T13:35:03;20.20;99.90
6379;DHT22;3222;48.858;10.128;2022-08-19T13:37:29;20.20;99.90
6379;DHT22;3222;48.858;10.128;2022-08-19T13:40:18;20.20;99.90
6379;DHT22;3222;48.858;10.128;2022-08-19T13:42:46;20.10;99.90
6379;DHT22;3222;48.858;10.128;2022-08-19T13:45:13;20.20;99.90
6379;DHT22;3222;48.858;10.128;2022-08-19T13:47:40;20.20;99.90
6379;DHT22;3222;48.858;10.128;2022-08-19T13:50:15;20.10;99.90
6379;DHT22;3222;48.858;10.128;2022-08-19T13:52:41;20.10;99.90
6379;DHT22;3222;48.858;10.128;2022-08-19T13:55:09;20.20;99.90
6379;DHT22;3222;48.858;10.128;2022-08-19T13:57:35;20.20;99.90
6379;DHT22;3222;48.858;10.128;2022-08-19T14:00:03;20.10;99.90
6379;DHT22;3222;48.858;10.128;2022-08-19T14:02:30;20.10;99.90
6379;DHT22;3222;48.858;10.128;2022-08-19T14:04:55;20.10;99.90
6379;DHT22;3222;48.858;10.128;2022-08-19T14:07:21;20.10;99.90
6379;DHT22;3222;48.858;10.128;2022-08-19T14:09:49;20.10;99.90
6379;DHT22;3222;48.858;10.128;2022-08-19T14:12:19;20.20;99.90
6379;DHT22;3222;48.858;10.128;2022-08-19T14:14:45;20.10;99.90
6379;DHT22;3222;48.858;10.128;2022-08-19T14:17:11;20.00;99.90
6379;DHT22;3222;48.858;10.128;2022-08-19T14:19:37;20.00;99.90
6379;DHT22;3222;48.858;10.128;2022-08-19T14:22:03;20.00;99.90
6379;DHT22;3222;48.858;10.128;2022-08-19T14:24:29;19.90;99.90
6379;DHT22;3222;48.858;10.128;2022-08-19T14:26:57;19.90;99.90
6379;DHT22;3222;48.858;10.128;2022-08-19T14:29:23;19.90;99.90
6379;DHT22;3222;48.858;10.128;2022-08-19T14:31:49;19.90;99.90
6379;DHT22;3222;48.858;10.128;2022-08-19T14:34:15;19.90;99.90
6379;DHT22;3222;48.858;10.128;2022-08-19T14:36:41;19.90;99.90
6379;DHT22;3222;48.858;10.128;2022-08-19T14:39:07;19.80;99.90
6379;DHT22;3222;48.858;10.128;2022-08-19T14:41:34;19.80;99.90
6379;DHT22;3222;48.858;10.128;2022-08-19T14:43:59;19.80;99.90
6379;DHT22;3222;48.858;10.128;2022-08-19T14:46:27;19.70;99.90
6379;DHT22;3222;48.858;10.128;2022-08-19T14:48:54;19.70;99.90
6379;DHT22;3222;48.858;10.128;2022-08-19T14:51:21;19.70;99.90
6379;DHT22;3222;48.858;10.128;2022-08-19T14:53:47;19.70;99.90
6379;DHT22;3222;48.858;10.128;2022-08-19T14:56:19;19.90;99.90
6379;DHT22;3222;48.858;10.128;2022-08-19T14:58:45;19.90;99.90
6379;DHT22;3222;48.858;10.128;2022-08-19T15:01:12;20.10;99.90
6379;DHT22;3222;48.858;10.128;2022-08-19T15:03:39;20.00;99.90
6379;DHT22;3222;48.858;10.128;2022-08-19T15:06:07;19.90;99.90
6379;DHT22;3222;48.858;10.128;2022-08-19T15:08:35;19.90;99.90
6379;DHT22;3222;48.858;10.128;2022-08-19T15:11:02;20.00;99.90
6379;DHT22;3222;48.858;10.128;2022-08-19T15:13:28;19.90;99.90
6379;DHT22;3222;48.858;10.128;2022-08-19T15:15:56;19.80;99.90
6379;DHT22;3222;48.858;10.128;2022-08-19T15:18:22;19.90;99.90
6379;DHT22;3222;48.858;10.128;2022-08-19T15:20:48;19.80;99.90
6379;DHT22;3222;48.858;10.128;2022-08-19T15:23:15;19.80;99.90
6379;DHT22;3222;48.858;10.128;2022-08-19T15:25:42;19.70;99.90
6379;DHT22;3222;48.858;10.128;2022-08-19T15:28:09;19.70;99.90
6379;DHT22;3222;48.858;10.128;2022-08-19T15:30:38;19.60;99.90
6379;DHT22;3222;48.858;10.128;2022-08-19T15:33:05;19.60;99.90
6379;DHT22;3222;48.858;10.128;2022-08-19T15:35:31;19.70;99.90
6379;DHT22;3222;48.858;10.128;2022-08-19T15:37:57;19.70;99.90
6379;DHT22;3222;48.858;10.128;2022-08-19T15:40:25;19.70;99.90
6379;DHT22;3222;48.858;10.128;2022-08-19T15:42:52;19.70;99.90
6379;DHT22;3222;48.858;10.128;2022-08-19T15:45:19;19.70;99.90
6379;DHT22;3222;48.858;10.128;2022-08-19T15:47:46;19.60;99.90
6379;DHT22;3222;48.858;10.128;2022-08-19T15:50:18;19.60;99.90
6379;DHT22;3222;48.858;10.128;2022-08-19T15:52:51;19.70;99.90
6379;DHT22;3222;48.858;10.128;2022-08-19T15:55:24;19.70;99.90
6379;DHT22;3222;48.858;10.128;2022-08-19T15:57:50;19.70;99.90
6379;DHT22;3222;48.858;10.128;2022-08-19T16:00:34;19.80;99.90